Time;durP1;ratioP1;P1;durP2;ratioP2;P2;SDS_P1;SDS_P2;PMS_P1;PMS_P2;Temp;Humidity;BMP_temperature;BMP_pressure;BME280_temperature;BME280_humidity;BME280_pressure;Samples;Min_cycle;Max_cycle;Signal;HPM_P1;HPM_P2
2022/10/17 00:00:43;;;;;;;5.43;4.93;;;14.00;99.90;;;;;;5082551;28;20187;-80
2022/10/17 00:03:09;;;;;;;5.63;5.00;;;14.00;99.90;;;;;;5086643;28;20182;-76
2022/10/17 00:05:42;;;;;;;6.00;5.35;;;14.00;99.90;;;;;;5087913;28;20210;-76
2022/10/17 00:08:08;;;;;;;6.65;4.82;;;14.00;99.90;;;;;;5084662;28;20228;-76
2022/10/17 00:10:35;;;;;;;6.35;5.28;;;13.90;99.90;;;;;;5090172;28;20554;-76
2022/10/17 00:13:00;;;;;;;9.13;5.53;;;13.90;99.90;;;;;;5085842;28;20181;-76
2022/10/17 00:15:26;;;;;;;6.30;4.95;;;13.90;99.90;;;;;;5085405;28;20210;-76
2022/10/17 00:17:52;;;;;;;5.28;4.85;;;13.90;99.90;;;;;;5088322;28;20696;-76
2022/10/17 00:20:17;;;;;;;6.72;4.60;;;13.90;99.90;;;;;;5091552;28;20189;-76
2022/10/17 00:22:43;;;;;;;6.25;5.38;;;14.00;99.90;;;;;;5087877;28;20240;-75
2022/10/17 00:25:09;;;;;;;6.00;4.78;;;14.00;99.90;;;;;;5085780;28;20321;-76
2022/10/17 00:27:39;;;;;;;7.43;5.28;;;14.00;99.90;;;;;;5085683;28;20175;-76
2022/10/17 00:30:08;;;;;;;5.32;4.13;;;13.90;99.90;;;;;;5089095;28;20178;-76
2022/10/17 00:32:34;;;;;;;5.38;4.88;;;14.00;99.90;;;;;;5083823;28;20690;-76
2022/10/17 00:35:00;;;;;;;7.40;4.47;;;14.00;99.90;;;;;;5089958;28;20236;-76
2022/10/17 00:37:26;;;;;;;5.68;5.15;;;14.00;99.90;;;;;;5088342;28;20236;-76
2022/10/17 00:39:52;;;;;;;4.97;4.57;;;14.00;99.90;;;;;;5090847;28;20174;-76
2022/10/17 00:42:17;;;;;;;5.63;4.90;;;14.10;99.90;;;;;;5082450;28;20198;-75
2022/10/17 00:44:46;;;;;;;5.68;5.18;;;14.10;99.90;;;;;;5086237;28;20210;-75
2022/10/17 00:47:19;;;;;;;5.13;4.63;;;14.10;99.90;;;;;;5087057;28;20564;-75
2022/10/17 00:49:46;;;;;;;5.20;4.70;;;14.10;99.90;;;;;;5089577;28;20174;-76
2022/10/17 00:52:16;;;;;;;7.22;4.65;;;14.10;99.90;;;;;;5085133;28;20176;-77
2022/10/17 00:54:46;;;;;;;6.45;5.15;;;14.20;99.90;;;;;;5088038;28;20194;-76
2022/10/17 00:57:13;;;;;;;5.97;4.78;;;14.20;99.90;;;;;;5090034;28;20184;-75
2022/10/17 00:59:42;;;;;;;5.35;4.72;;;14.20;99.90;;;;;;5094827;28;20279;-75
2022/10/17 01:02:09;;;;;;;6.40;4.70;;;14.20;99.90;;;;;;5088907;28;20191;-74
2022/10/17 01:04:37;;;;;;;5.72;4.53;;;14.10;99.90;;;;;;5086389;28;20200;-75
2022/10/17 01:07:03;;;;;;;4.80;4.43;;;14.00;99.90;;;;;;5085869;28;20178;-75
2022/10/17 01:09:29;;;;;;;4.88;4.47;;;14.00;99.90;;;;;;5079866;28;20175;-75
2022/10/17 01:12:16;;;;;;;5.72;4.72;;;13.80;99.90;;;;;;5081718;28;20638;-75
2022/10/17 01:15:06;;;;;;;5.25;4.63;;;13.80;99.90;;;;;;5088187;28;20284;-76
2022/10/17 01:17:58;;;;;;;6.60;5.25;;;13.70;99.90;;;;;;5084648;28;20179;-77
2022/10/17 01:20:45;;;;;;;5.35;4.80;;;13.60;99.90;;;;;;5088976;28;20178;-75
2022/10/17 01:23:30;;;;;;;5.45;4.95;;;13.60;99.90;;;;;;5087757;28;20179;-75
2022/10/17 01:26:01;;;;;;;4.60;4.20;;;13.60;99.90;;;;;;5090877;28;20808;-76
2022/10/17 01:28:57;;;;;;;5.32;4.47;;;13.70;99.90;;;;;;5090913;28;20190;-76
2022/10/17 01:31:32;;;;;;;5.10;4.63;;;13.70;99.90;;;;;;5089103;28;20191;-75
2022/10/17 01:34:04;;;;;;;5.65;4.97;;;13.80;99.90;;;;;;5093878;28;20194;-75
2022/10/17 01:36:35;;;;;;;4.93;4.50;;;13.70;99.90;;;;;;5092914;28;20633;-75
2022/10/17 01:39:27;;;;;;;5.38;4.88;;;13.60;99.90;;;;;;5085909;28;20175;-75
2022/10/17 01:42:16;;;;;;;6.57;4.90;;;13.60;99.90;;;;;;5088575;28;20669;-75
2022/10/17 01:44:58;;;;;;;4.93;4.53;;;13.50;99.90;;;;;;5080662;28;20219;-76
2022/10/17 01:47:28;;;;;;;5.40;4.47;;;13.50;99.90;;;;;;5079599;28;20178;-75
2022/10/17 01:49:58;;;;;;;6.32;4.78;;;13.50;99.90;;;;;;5090348;28;20236;-75
2022/10/17 01:52:30;;;;;;;6.05;5.32;;;13.40;99.90;;;;;;5087057;28;20197;-75
2022/10/17 01:55:32;;;;;;;5.10;4.60;;;13.40;99.90;;;;;;5087262;28;20240;-75
2022/10/17 01:58:07;;;;;;;5.32;4.82;;;13.30;99.90;;;;;;5061759;28;20588;-75
2022/10/17 02:00:36;;;;;;;5.57;4.97;;;13.30;99.90;;;;;;5086156;28;20269;-75
2022/10/17 02:03:37;;;;;;;6.47;5.03;;;13.20;99.90;;;;;;5086937;28;20646;-75
2022/10/17 02:06:03;;;;;;;5.78;5.28;;;13.30;99.90;;;;;;5086861;28;20206;-76
2022/10/17 02:08:47;;;;;;;5.88;5.25;;;13.30;99.90;;;;;;5091057;28;20755;-76
2022/10/17 02:11:28;;;;;;;6.28;5.05;;;13.30;99.90;;;;;;5094168;28;20188;-76
2022/10/17 02:14:24;;;;;;;7.38;4.90;;;13.30;99.90;;;;;;5089310;28;20198;-77
2022/10/17 02:17:16;;;;;;;6.35;5.40;;;13.30;99.90;;;;;;5087734;28;20197;-75
2022/10/17 02:20:23;;;;;;;5.90;4.88;;;13.10;99.90;;;;;;5090551;28;20203;-76
2022/10/17 02:22:57;;;;;;;6.47;5.55;;;13.00;99.90;;;;;;5089077;28;20250;-76
2022/10/17 02:25:30;;;;;;;7.80;5.60;;;13.00;99.90;;;;;;5090668;28;20223;-76
2022/10/17 02:28:27;;;;;;;6.00;5.40;;;13.00;99.90;;;;;;5085095;28;20193;-76
2022/10/17 02:31:12;;;;;;;5.43;4.90;;;12.90;99.90;;;;;;5090299;28;20198;-76
2022/10/17 02:33:57;;;;;;;5.90;5.30;;;12.90;99.90;;;;;;5080253;28;20207;-76
2022/10/17 02:36:28;;;;;;;5.68;5.18;;;12.90;99.90;;;;;;5089380;28;20224;-76
2022/10/17 02:38:55;;;;;;;6.28;4.97;;;12.90;99.90;;;;;;5090402;28;20240;-76
2022/10/17 02:41:23;;;;;;;6.03;5.35;;;12.90;99.90;;;;;;5086571;28;20232;-76
2022/10/17 02:43:49;;;;;;;5.95;5.15;;;12.90;99.90;;;;;;5081451;28;20716;-81
2022/10/17 02:46:20;;;;;;;6.45;5.32;;;12.80;99.90;;;;;;5080007;28;20206;-78
2022/10/17 02:48:51;;;;;;;5.80;5.30;;;12.80;99.90;;;;;;5088532;28;20203;-75
2022/10/17 02:51:25;;;;;;;5.25;4.75;;;12.80;99.90;;;;;;5088636;28;20170;-75
2022/10/17 02:54:03;;;;;;;5.97;5.38;;;12.70;99.90;;;;;;5088770;28;20197;-75
2022/10/17 02:56:31;;;;;;;5.72;5.32;;;12.70;99.90;;;;;;5088551;28;20458;-76
2022/10/17 02:58:59;;;;;;;6.10;5.50;;;12.60;99.90;;;;;;5091945;28;20600;-76
2022/10/17 03:01:25;;;;;;;5.85;5.40;;;12.50;99.90;;;;;;5089288;28;20174;-75
2022/10/17 03:04:02;;;;;;;6.47;5.18;;;12.50;99.90;;;;;;5086626;28;20703;-76
2022/10/17 03:06:28;;;;;;;6.18;5.55;;;12.50;99.90;;;;;;5084018;28;20209;-76
2022/10/17 03:08:54;;;;;;;5.95;5.32;;;12.50;99.90;;;;;;5088342;28;20655;-76
2022/10/17 03:11:19;;;;;;;9.60;5.65;;;12.50;99.90;;;;;;5086335;28;20182;-75
2022/10/17 03:13:45;;;;;;;6.20;5.60;;;12.40;99.90;;;;;;5083693;28;20195;-74
2022/10/17 03:16:11;;;;;;;6.57;5.75;;;12.30;99.90;;;;;;5077017;28;20190;-74
2022/10/17 03:18:36;;;;;;;7.45;6.05;;;12.30;99.90;;;;;;5086743;28;20189;-74
2022/10/17 03:21:02;;;;;;;6.57;5.10;;;12.20;99.90;;;;;;5079169;28;20178;-75
2022/10/17 03:23:27;;;;;;;5.53;5.00;;;12.20;99.90;;;;;;5085445;28;20179;-75
2022/10/17 03:25:53;;;;;;;6.10;5.38;;;12.10;99.90;;;;;;5080498;28;20671;-74
2022/10/17 03:28:19;;;;;;;5.22;4.80;;;12.20;99.90;;;;;;5085601;28;20183;-74
2022/10/17 03:30:44;;;;;;;8.48;5.00;;;12.20;99.90;;;;;;5082983;28;20269;-75
2022/10/17 03:33:10;;;;;;;5.88;5.40;;;12.20;99.90;;;;;;5087853;28;20642;-75
2022/10/17 03:35:39;;;;;;;5.75;5.25;;;12.10;99.90;;;;;;5086557;28;20214;-74
2022/10/17 03:38:04;;;;;;;5.85;5.20;;;12.10;99.90;;;;;;5091349;28;20182;-74
2022/10/17 03:40:30;;;;;;;8.15;5.80;;;12.10;99.90;;;;;;5083170;28;20552;-74
2022/10/17 03:42:55;;;;;;;6.05;4.63;;;12.10;99.90;;;;;;5085424;28;20182;-76
2022/10/17 03:45:21;;;;;;;5.70;4.95;;;12.00;99.90;;;;;;5082221;28;20222;-74
2022/10/17 03:47:47;;;;;;;4.57;4.28;;;12.00;99.90;;;;;;5087196;28;20585;-74
2022/10/17 03:50:12;;;;;;;6.22;5.30;;;11.90;99.90;;;;;;5086415;28;20179;-74
2022/10/17 03:52:38;;;;;;;6.22;5.63;;;12.00;99.90;;;;;;5089138;28;20178;-75
2022/10/17 03:55:04;;;;;;;5.93;5.32;;;12.00;99.90;;;;;;5089827;28;20213;-74
2022/10/17 03:57:30;;;;;;;5.72;5.22;;;12.10;99.90;;;;;;5091840;28;20194;-74
2022/10/17 03:59:56;;;;;;;8.55;5.38;;;12.00;99.90;;;;;;5087523;28;20194;-74
2022/10/17 04:02:21;;;;;;;7.18;5.00;;;12.00;99.90;;;;;;5090653;28;20183;-74
2022/10/17 04:04:47;;;;;;;5.72;5.15;;;12.00;99.90;;;;;;5088922;28;20292;-75
2022/10/17 04:07:12;;;;;;;5.18;4.78;;;12.00;99.90;;;;;;5096882;28;20174;-74
2022/10/17 04:09:38;;;;;;;5.63;4.97;;;11.90;99.90;;;;;;5090195;28;20175;-74
2022/10/17 04:12:04;;;;;;;11.65;5.53;;;11.80;99.90;;;;;;5088370;28;20261;-74
2022/10/17 04:14:29;;;;;;;5.40;4.90;;;11.80;99.90;;;;;;5093910;28;20199;-74
2022/10/17 04:16:55;;;;;;;5.30;4.80;;;11.70;99.90;;;;;;5087625;28;20560;-75
2022/10/17 04:19:21;;;;;;;5.93;4.68;;;11.70;99.90;;;;;;5083426;28;20187;-74
2022/10/17 04:21:47;;;;;;;5.13;4.72;;;11.70;99.90;;;;;;5091493;28;20181;-74
2022/10/17 04:24:13;;;;;;;6.78;4.88;;;11.70;99.90;;;;;;5092425;28;20210;-74
2022/10/17 04:26:38;;;;;;;7.63;4.88;;;11.70;99.90;;;;;;5089776;28;20225;-74
2022/10/17 04:29:04;;;;;;;6.18;4.88;;;11.70;99.90;;;;;;5083029;28;20270;-74
2022/10/17 04:31:30;;;;;;;4.60;4.20;;;11.60;99.90;;;;;;5089961;28;20189;-75
2022/10/17 04:33:56;;;;;;;8.57;4.72;;;11.60;99.90;;;;;;5086302;28;20206;-75
2022/10/17 04:36:22;;;;;;;5.75;4.40;;;11.50;99.90;;;;;;5094009;28;20235;-75
2022/10/17 04:38:47;;;;;;;5.80;5.13;;;11.50;99.90;;;;;;5090054;28;20195;-76
2022/10/17 04:41:16;;;;;;;5.00;4.57;;;11.60;99.90;;;;;;5094570;28;20269;-75
2022/10/17 04:43:45;;;;;;;5.38;4.68;;;11.60;99.90;;;;;;5089916;28;20231;-76
2022/10/17 04:46:13;;;;;;;4.75;4.07;;;11.60;99.90;;;;;;5086009;28;20207;-76
2022/10/17 04:48:40;;;;;;;5.03;4.60;;;11.60;99.90;;;;;;5104415;27;20190;-76
2022/10/17 04:51:10;;;;;;;4.70;4.32;;;11.60;99.90;;;;;;5095367;28;20170;-75
2022/10/17 04:53:37;;;;;;;7.20;5.22;;;11.60;99.90;;;;;;5087620;28;20599;-76
2022/10/17 04:56:14;;;;;;;8.13;5.18;;;11.50;99.90;;;;;;5090714;28;20171;-76
2022/10/17 04:58:41;;;;;;;5.45;5.05;;;11.50;99.90;;;;;;5089427;28;20293;-75
2022/10/17 05:01:09;;;;;;;5.10;4.80;;;11.50;99.90;;;;;;5096052;28;20179;-75
2022/10/17 05:03:35;;;;;;;7.00;4.93;;;11.40;99.90;;;;;;5084914;28;20238;-75
2022/10/17 05:06:10;;;;;;;6.07;5.50;;;11.40;99.90;;;;;;5086923;28;20206;-75
2022/10/17 05:08:36;;;;;;;7.15;6.55;;;11.40;99.90;;;;;;5085783;28;20179;-76
2022/10/17 05:11:02;;;;;;;6.90;6.30;;;11.40;99.90;;;;;;5083665;28;20517;-75
2022/10/17 05:13:28;;;;;;;6.88;6.28;;;11.30;99.90;;;;;;5086874;28;20237;-75
2022/10/17 05:15:58;;;;;;;8.88;5.80;;;11.30;99.90;;;;;;5083672;28;20332;-76
2022/10/17 05:18:32;;;;;;;6.95;6.03;;;11.30;99.90;;;;;;5088597;28;20211;-76
2022/10/17 05:20:58;;;;;;;7.60;5.32;;;11.30;99.90;;;;;;5093984;28;20182;-77
2022/10/17 05:23:24;;;;;;;5.57;5.07;;;11.30;99.90;;;;;;5088565;28;20652;-75
2022/10/17 05:25:56;;;;;;;6.18;4.75;;;11.30;99.90;;;;;;5086116;28;20681;-75
2022/10/17 05:28:22;;;;;;;5.10;4.70;;;11.30;99.90;;;;;;5090552;28;20194;-75
2022/10/17 05:30:48;;;;;;;5.85;5.25;;;11.20;99.90;;;;;;5087443;28;20182;-75
2022/10/17 05:33:13;;;;;;;9.07;6.00;;;11.20;99.90;;;;;;5088731;28;20315;-74
2022/10/17 05:35:39;;;;;;;6.10;5.25;;;11.20;99.90;;;;;;5085186;28;20203;-75
2022/10/17 05:38:05;;;;;;;6.68;5.93;;;11.20;99.90;;;;;;5082846;28;20183;-75
2022/10/17 05:40:30;;;;;;;6.43;5.82;;;11.10;99.90;;;;;;5084525;28;20179;-76
2022/10/17 05:42:56;;;;;;;5.75;5.25;;;11.10;99.90;;;;;;5087633;28;20184;-75
2022/10/17 05:45:22;;;;;;;7.28;6.57;;;11.00;99.90;;;;;;5091271;28;20218;-76
2022/10/17 05:47:47;;;;;;;16.25;5.60;;;11.00;99.90;;;;;;5086886;28;20188;-75
2022/10/17 05:50:13;;;;;;;7.95;6.18;;;11.00;99.90;;;;;;5090478;28;20228;-75
2022/10/17 05:52:39;;;;;;;9.80;6.80;;;11.00;99.90;;;;;;5090019;28;20170;-74
2022/10/17 05:55:06;;;;;;;8.10;6.47;;;11.10;99.90;;;;;;5084656;28;20621;-74
2022/10/17 05:57:31;;;;;;;8.77;6.50;;;11.10;99.90;;;;;;5082913;28;20183;-74
2022/10/17 05:59:57;;;;;;;8.77;6.60;;;11.20;99.90;;;;;;5089585;28;20481;-73
2022/10/17 06:02:23;;;;;;;9.70;6.63;;;11.30;99.90;;;;;;5087603;28;20179;-75
2022/10/17 06:04:49;;;;;;;7.70;6.18;;;11.40;99.90;;;;;;5085114;28;20779;-75
2022/10/17 06:07:15;;;;;;;6.45;5.72;;;11.50;99.90;;;;;;5083011;28;20185;-75
2022/10/17 06:09:41;;;;;;;9.63;8.38;;;11.50;99.90;;;;;;5087935;28;20190;-75
2022/10/17 06:12:07;;;;;;;8.68;6.60;;;11.50;99.90;;;;;;5088460;28;20182;-76
2022/10/17 06:14:33;;;;;;;7.18;5.43;;;11.50;99.90;;;;;;5087653;28;20186;-73
2022/10/17 06:16:58;;;;;;;8.48;5.57;;;11.60;99.90;;;;;;5081532;28;20702;-72
2022/10/17 06:19:24;;;;;;;6.57;5.93;;;11.70;99.90;;;;;;5079957;28;20175;-75
2022/10/17 06:21:50;;;;;;;10.60;6.82;;;11.70;99.90;;;;;;5083308;28;20182;-74
2022/10/17 06:24:16;;;;;;;10.55;8.02;;;11.70;99.90;;;;;;5082379;28;20195;-74
2022/10/17 06:26:42;;;;;;;10.15;6.50;;;11.70;99.90;;;;;;5088425;28;20653;-74
2022/10/17 06:29:07;;;;;;;16.52;6.65;;;11.80;99.90;;;;;;5086613;28;20210;-73
2022/10/17 06:31:33;;;;;;;15.38;7.00;;;11.90;99.90;;;;;;5087594;28;20702;-77
2022/10/17 06:33:59;;;;;;;6.90;6.07;;;11.90;99.90;;;;;;5087563;28;20191;-73
2022/10/17 06:36:24;;;;;;;12.35;6.15;;;12.00;99.90;;;;;;5082227;28;20205;-73
2022/10/17 06:38:50;;;;;;;6.15;5.55;;;12.00;99.90;;;;;;5084988;28;20231;-78
2022/10/17 06:41:18;;;;;;;9.88;6.35;;;12.10;99.90;;;;;;5079233;28;20527;-76
2022/10/17 06:43:45;;;;;;;8.80;5.60;;;12.20;99.90;;;;;;5084551;28;20276;-77
2022/10/17 06:46:13;;;;;;;9.43;6.03;;;12.20;99.90;;;;;;5086074;28;20695;-77
2022/10/17 06:48:50;;;;;;;7.22;5.05;;;12.30;99.90;;;;;;5098613;28;20175;-78
2022/10/17 06:51:24;;;;;;;5.32;4.93;;;12.50;99.90;;;;;;5101037;28;20184;-77
2022/10/17 06:53:59;;;;;;;9.80;4.60;;;12.60;99.90;;;;;;5097348;28;20198;-78
2022/10/17 06:56:24;;;;;;;5.28;4.40;;;12.70;99.90;;;;;;5102992;28;20184;-79
2022/10/17 06:58:56;;;;;;;6.57;5.47;;;12.80;99.90;;;;;;5095974;28;20179;-79
2022/10/17 07:01:22;;;;;;;13.02;5.60;;;13.10;99.90;;;;;;5097232;28;20246;-79
2022/10/17 07:03:51;;;;;;;5.95;4.65;;;13.20;99.90;;;;;;5097634;28;20244;-78
2022/10/17 07:06:23;;;;;;;7.57;5.43;;;13.20;99.90;;;;;;5101548;28;20220;-79
2022/10/17 07:08:49;;;;;;;4.78;4.35;;;13.40;99.90;;;;;;5095491;28;20175;-79
2022/10/17 07:11:39;;;;;;;14.98;5.43;;;13.50;99.90;;;;;;5102085;28;20226;-79
2022/10/17 07:14:05;;;;;;;16.50;6.47;;;13.80;99.90;;;;;;5092329;28;20195;-77
2022/10/17 07:16:31;;;;;;;14.20;6.45;;;13.80;99.90;;;;;;5084045;28;20257;-76
2022/10/17 07:18:56;;;;;;;14.27;6.22;;;13.80;99.90;;;;;;5081601;28;20634;-77
2022/10/17 07:21:22;;;;;;;6.57;5.90;;;13.80;99.90;;;;;;5084660;28;20182;-78
2022/10/17 07:23:48;;;;;;;6.68;6.03;;;14.00;99.90;;;;;;5083287;28;20629;-77
2022/10/17 07:26:16;;;;;;;10.70;5.88;;;14.20;99.90;;;;;;5080399;28;20220;-77
2022/10/17 07:28:43;;;;;;;6.40;5.75;;;14.40;99.90;;;;;;5079378;28;20534;-76
2022/10/17 07:31:11;;;;;;;7.72;6.38;;;14.40;99.90;;;;;;5085243;28;20170;-77
2022/10/17 07:33:37;;;;;;;8.13;6.28;;;14.60;99.90;;;;;;5085663;28;20174;-77
2022/10/17 07:36:04;;;;;;;11.10;6.07;;;14.80;99.90;;;;;;5085929;28;20649;-77
2022/10/17 07:38:30;;;;;;;17.92;6.53;;;14.90;99.90;;;;;;5080418;28;20265;-79
2022/10/17 07:40:58;;;;;;;12.88;6.18;;;15.00;99.90;;;;;;5080327;28;20182;-77
2022/10/17 07:43:24;;;;;;;9.13;6.28;;;15.10;99.90;;;;;;5080171;28;20203;-76
2022/10/17 07:45:51;;;;;;;6.18;5.57;;;15.20;99.90;;;;;;5073881;28;20209;-78
2022/10/17 07:48:17;;;;;;;9.98;5.95;;;15.40;99.90;;;;;;5088576;28;20215;-79
2022/10/17 07:50:46;;;;;;;7.70;6.45;;;15.70;99.90;;;;;;5092534;28;20635;-81
2022/10/17 07:53:12;;;;;;;9.02;6.68;;;15.80;99.90;;;;;;5100802;28;20178;-81
2022/10/17 07:55:39;;;;;;;9.85;6.15;;;16.00;99.90;;;;;;5093095;28;20558;-79
2022/10/17 07:58:05;;;;;;;7.32;6.63;;;16.20;99.90;;;;;;5093692;28;20175;-81
2022/10/17 08:00:31;;;;;;;10.48;7.50;;;16.20;99.90;;;;;;5096073;28;20210;-83
2022/10/17 08:02:56;;;;;;;10.70;8.20;;;16.40;99.90;;;;;;5092919;28;20661;-82
2022/10/17 08:05:22;;;;;;;8.52;7.55;;;16.60;99.90;;;;;;5102512;28;20248;-84
2022/10/17 08:07:48;;;;;;;12.98;9.25;;;16.70;99.90;;;;;;5097649;28;20198;-82
2022/10/17 08:10:15;;;;;;;11.77;8.95;;;16.90;99.90;;;;;;5101331;28;20277;-81
2022/10/17 08:12:41;;;;;;;18.38;13.15;;;17.00;99.90;;;;;;5091984;28;20178;-80
2022/10/17 08:15:07;;;;;;;17.60;12.13;;;17.30;99.90;;;;;;5095071;28;20218;-81
2022/10/17 08:17:34;;;;;;;17.77;14.18;;;17.40;99.90;;;;;;5096477;28;20170;-80
2022/10/17 08:20:00;;;;;;;15.65;12.85;;;17.50;99.90;;;;;;5089980;28;20225;-80
2022/10/17 08:22:26;;;;;;;16.33;13.23;;;17.70;99.90;;;;;;5091387;28;20474;-80
2022/10/17 08:24:51;;;;;;;18.23;14.60;;;17.70;99.90;;;;;;5096422;28;20204;-77
2022/10/17 08:27:22;;;;;;;18.92;14.45;;;17.50;99.90;;;;;;5097010;28;20382;-81
2022/10/17 08:29:51;;;;;;;17.67;15.32;;;17.20;99.90;;;;;;5099665;28;20175;-81
2022/10/17 08:32:21;;;;;;;20.95;15.45;;;17.20;99.90;;;;;;5101772;28;20209;-83
2022/10/17 08:34:47;;;;;;;18.80;14.60;;;17.30;99.90;;;;;;5095240;28;20194;-82
2022/10/17 08:37:13;;;;;;;18.40;14.68;;;17.60;99.90;;;;;;5107114;28;20247;-82
2022/10/17 08:39:43;;;;;;;19.60;14.13;;;18.00;99.90;;;;;;5102957;28;20178;-82
2022/10/17 08:42:45;;;;;;;17.20;14.15;;;18.50;99.90;;;;;;5100412;28;20484;-82
2022/10/17 08:45:31;;;;;;;17.98;12.85;;;18.70;99.90;;;;;;5094628;28;20217;-80
2022/10/17 08:48:00;;;;;;;16.10;13.73;;;18.80;99.90;;;;;;5093165;28;20193;-79
2022/10/17 08:50:52;;;;;;;15.20;12.95;;;18.90;99.90;;;;;;5102644;28;20178;-80
2022/10/17 08:53:31;;;;;;;15.93;13.70;;;18.90;99.90;;;;;;5096437;28;20262;-80
2022/10/17 08:56:01;;;;;;;14.52;12.70;;;18.80;99.90;;;;;;5094586;28;20178;-80
2022/10/17 08:58:32;;;;;;;13.48;12.18;;;19.00;99.90;;;;;;5090169;28;20669;-78
2022/10/17 09:01:06;;;;;;;13.57;12.20;;;19.50;99.90;;;;;;5080177;28;20243;-79
2022/10/17 09:04:16;;;;;;;12.75;11.45;;;19.50;99.90;;;;;;5089178;28;20190;-76
2022/10/17 09:06:56;;;;;;;13.15;11.70;;;20.30;99.90;;;;;;5090655;28;20290;-77
2022/10/17 09:09:35;;;;;;;12.80;11.60;;;22.20;99.90;;;;;;5085423;28;20178;-77
2022/10/17 09:12:17;;;;;;;12.98;11.25;;;23.20;99.90;;;;;;5089155;28;20185;-76
2022/10/17 09:15:11;;;;;;;12.10;10.98;;;24.60;99.90;;;;;;5094598;28;20224;-74
2022/10/17 09:17:50;;;;;;;11.63;10.50;;;26.20;99.90;;;;;;5097643;28;20258;-74
2022/10/17 09:20:21;;;;;;;11.98;10.77;;;28.00;99.90;;;;;;5095290;28;20175;-77
2022/10/17 09:22:59;;;;;;;11.93;10.82;;;29.20;96.30;;;;;;5081311;28;20250;-76
2022/10/17 09:25:26;;;;;;;12.15;11.00;;;30.10;91.10;;;;;;5092531;28;20202;-76
2022/10/17 09:28:14;;;;;;;12.00;10.82;;;30.60;87.80;;;;;;5085092;28;20174;-76
2022/10/17 09:30:43;;;;;;;10.93;9.95;;;31.10;82.00;;;;;;5089601;27;20642;-76
2022/10/17 09:33:18;;;;;;;11.02;10.02;;;31.70;79.40;;;;;;5084671;28;20305;-75
2022/10/17 09:35:44;;;;;;;11.43;10.02;;;32.00;76.30;;;;;;5088554;28;20186;-74
2022/10/17 09:38:19;;;;;;;10.57;9.57;;;32.80;73.50;;;;;;5087685;28;20835;-74
2022/10/17 09:40:59;;;;;;;10.65;9.25;;;33.50;70.30;;;;;;5090663;28;20228;-74
2022/10/17 09:43:25;;;;;;;10.88;9.77;;;34.20;66.90;;;;;;5085227;28;20185;-74
2022/10/17 09:46:28;;;;;;;11.52;10.43;;;34.90;64.20;;;;;;5086122;28;20198;-74
2022/10/17 09:49:12;;;;;;;10.55;9.63;;;35.10;62.20;;;;;;5083395;28;20179;-75
2022/10/17 09:51:38;;;;;;;9.98;9.02;;;35.50;60.20;;;;;;5085045;28;20186;-75
2022/10/17 09:54:16;;;;;;;10.65;9.68;;;35.50;59.50;;;;;;5084188;28;20250;-75
2022/10/17 09:57:07;;;;;;;9.88;9.07;;;35.40;58.80;;;;;;5088489;28;20228;-75
2022/10/17 09:59:45;;;;;;;11.00;10.00;;;35.50;58.30;;;;;;5078788;28;20186;-75
2022/10/17 10:02:25;;;;;;;11.95;10.68;;;35.20;58.60;;;;;;5088319;28;20190;-75
2022/10/17 10:04:57;;;;;;;10.65;9.63;;;34.80;58.70;;;;;;5083263;28;20267;-75
2022/10/17 10:07:28;;;;;;;10.98;10.07;;;34.70;59.00;;;;;;5082832;28;20182;-75
2022/10/17 10:09:55;;;;;;;10.55;9.52;;;34.70;59.50;;;;;;5078935;28;20182;-75
2022/10/17 10:12:27;;;;;;;13.00;11.77;;;34.90;59.10;;;;;;5088376;28;20669;-75
2022/10/17 10:14:53;;;;;;;12.60;11.27;;;35.00;58.90;;;;;;5078882;28;20626;-76
2022/10/17 10:17:33;;;;;;;11.27;10.27;;;35.20;58.70;;;;;;5077962;28;20325;-77
2022/10/17 10:20:00;;;;;;;11.95;10.75;;;35.40;58.50;;;;;;5081978;28;20175;-77
2022/10/17 10:22:26;;;;;;;12.85;9.18;;;35.80;58.00;;;;;;5075471;28;20187;-77
2022/10/17 10:25:14;;;;;;;10.45;9.43;;;35.90;58.00;;;;;;5079138;28;20244;-77
2022/10/17 10:27:43;;;;;;;10.40;9.40;;;37.00;55.80;;;;;;5075667;28;20178;-77
2022/10/17 10:30:23;;;;;;;10.65;9.70;;;37.40;55.20;;;;;;5089258;28;20178;-77
2022/10/17 10:32:49;;;;;;;10.38;9.38;;;37.30;55.20;;;;;;5080504;28;20205;-74
2022/10/17 10:35:32;;;;;;;10.40;9.57;;;37.50;55.00;;;;;;5088157;28;20193;-74
2022/10/17 10:37:59;;;;;;;11.30;10.30;;;37.90;53.90;;;;;;5082415;28;20864;-75
2022/10/17 10:40:33;;;;;;;12.55;11.45;;;37.90;54.40;;;;;;5079963;28;20649;-73
2022/10/17 10:43:00;;;;;;;11.40;10.20;;;37.80;54.00;;;;;;5078698;28;20265;-78
2022/10/17 10:45:44;;;;;;;12.07;10.88;;;38.10;54.10;;;;;;5083124;28;20217;-73
2022/10/17 10:48:15;;;;;;;11.70;10.57;;;38.60;52.50;;;;;;5087365;28;20208;-73
2022/10/17 10:50:45;;;;;;;10.20;9.30;;;39.10;52.10;;;;;;5083604;28;20524;-74
2022/10/17 10:53:22;;;;;;;9.63;8.82;;;39.30;51.70;;;;;;5084370;28;20183;-73
2022/10/17 10:55:55;;;;;;;9.63;8.90;;;39.90;50.10;;;;;;5080970;28;20178;-73
2022/10/17 10:58:36;;;;;;;10.50;9.50;;;39.90;49.60;;;;;;5079531;28;20190;-73
2022/10/17 11:01:05;;;;;;;9.20;8.50;;;40.40;49.60;;;;;;5098620;28;20270;-75
2022/10/17 11:03:40;;;;;;;9.57;8.77;;;40.50;49.60;;;;;;5081875;28;20261;-73
2022/10/17 11:06:18;;;;;;;10.15;8.18;;;41.00;48.20;;;;;;5077332;28;20206;-72
2022/10/17 11:08:49;;;;;;;8.93;8.13;;;40.90;48.60;;;;;;5080416;28;20263;-73
2022/10/17 11:11:25;;;;;;;8.43;7.65;;;41.20;47.20;;;;;;5082930;28;20188;-74
2022/10/17 11:14:09;;;;;;;9.73;8.73;;;40.70;47.40;;;;;;5080570;28;20206;-76
2022/10/17 11:17:13;;;;;;;9.35;8.27;;;40.00;48.30;;;;;;5081214;28;20177;-75
2022/10/17 11:20:03;;;;;;;9.10;8.48;;;39.60;49.70;;;;;;5073218;28;20411;-74
2022/10/17 11:22:50;;;;;;;8.80;8.10;;;39.90;48.70;;;;;;5083730;28;20186;-75
2022/10/17 11:25:35;;;;;;;9.55;8.68;;;40.60;48.30;;;;;;5080055;28;20194;-75
2022/10/17 11:28:13;;;;;;;8.27;7.57;;;41.20;47.40;;;;;;5081690;28;20557;-75
2022/10/17 11:30:46;;;;;;;10.38;7.15;;;41.60;46.40;;;;;;5080789;28;20217;-75
2022/10/17 11:33:21;;;;;;;7.88;7.13;;;42.20;45.90;;;;;;5085862;28;20703;-76
2022/10/17 11:35:51;;;;;;;8.63;7.95;;;42.90;44.50;;;;;;5075182;28;20650;-77
2022/10/17 11:38:32;;;;;;;7.60;6.85;;;42.40;44.80;;;;;;5078014;28;20177;-74
2022/10/17 11:40:58;;;;;;;8.07;7.43;;;42.00;45.60;;;;;;5083668;28;20186;-76
2022/10/17 11:43:57;;;;;;;8.38;7.68;;;41.80;45.40;;;;;;5081385;28;20190;-76
2022/10/17 11:46:25;;;;;;;8.48;7.32;;;41.20;46.10;;;;;;5080327;28;20268;-76
2022/10/17 11:49:14;;;;;;;8.35;7.10;;;40.60;46.80;;;;;;5084963;28;20174;-76
2022/10/17 11:52:07;;;;;;;8.00;7.30;;;39.50;46.90;;;;;;5081640;28;20606;-76
2022/10/17 11:54:40;;;;;;;8.32;6.68;;;37.90;49.00;;;;;;5081882;28;20560;-77
2022/10/17 11:57:24;;;;;;;7.15;6.55;;;36.70;51.40;;;;;;5080989;28;20205;-75
2022/10/17 12:00:02;;;;;;;8.55;7.25;;;36.30;51.70;;;;;;5077525;28;20171;-75
2022/10/17 12:02:42;;;;;;;6.65;6.15;;;35.70;53.50;;;;;;5081185;28;20226;-75
2022/10/17 12:05:23;;;;;;;7.90;7.18;;;35.30;52.90;;;;;;5086993;28;20213;-75
2022/10/17 12:08:02;;;;;;;7.82;7.13;;;34.60;53.60;;;;;;5080218;28;20178;-74
2022/10/17 12:10:32;;;;;;;6.85;6.25;;;33.70;55.80;;;;;;5079405;28;20300;-73
2022/10/17 12:13:26;;;;;;;6.97;6.47;;;33.40;56.60;;;;;;5081033;28;20177;-73
2022/10/17 12:15:53;;;;;;;7.80;7.00;;;33.30;57.10;;;;;;5076924;28;20189;-73
2022/10/17 12:18:19;;;;;;;7.60;6.90;;;33.20;57.90;;;;;;5076595;28;20673;-73
2022/10/17 12:20:56;;;;;;;6.90;6.30;;;33.30;57.50;;;;;;5075860;28;20191;-74
2022/10/17 12:23:29;;;;;;;6.30;5.78;;;33.30;57.50;;;;;;5084480;28;20216;-76
2022/10/17 12:26:04;;;;;;;7.07;6.47;;;33.60;57.30;;;;;;5091159;28;20281;-76
2022/10/17 12:28:39;;;;;;;7.85;6.88;;;34.00;57.30;;;;;;5090947;28;20246;-77
2022/10/17 12:31:24;;;;;;;7.72;7.03;;;34.10;56.80;;;;;;5085210;28;20166;-76
2022/10/17 12:33:51;;;;;;;8.55;6.93;;;33.80;57.60;;;;;;5092524;28;20608;-76
2022/10/17 12:36:16;;;;;;;7.75;7.05;;;33.20;58.10;;;;;;5082268;28;20182;-76
2022/10/17 12:38:43;;;;;;;7.85;6.30;;;32.20;59.20;;;;;;5081072;28;20555;-76
2022/10/17 12:41:09;;;;;;;9.13;6.85;;;31.20;62.10;;;;;;5082770;28;20190;-76
2022/10/17 12:43:50;;;;;;;7.22;6.63;;;30.50;64.00;;;;;;5080643;28;20182;-80
2022/10/17 12:46:40;;;;;;;7.10;6.50;;;29.90;66.80;;;;;;5083348;28;20212;-77
2022/10/17 12:49:23;;;;;;;7.25;6.55;;;29.50;67.90;;;;;;5094167;28;20192;-76
2022/10/17 12:52:13;;;;;;;7.50;6.90;;;29.20;68.50;;;;;;5089785;28;20170;-77
2022/10/17 12:54:51;;;;;;;7.20;6.43;;;28.90;68.60;;;;;;5080072;28;20264;-80
2022/10/17 12:57:23;;;;;;;8.43;7.43;;;28.70;70.50;;;;;;5092889;28;20675;-76
2022/10/17 12:59:51;;;;;;;8.13;7.43;;;28.60;71.90;;;;;;5086094;28;20186;-75
2022/10/17 13:02:20;;;;;;;6.35;5.85;;;28.60;71.90;;;;;;5094465;28;20192;-79
2022/10/17 13:04:47;;;;;;;7.47;6.78;;;28.60;72.00;;;;;;5086054;28;20194;-74
2022/10/17 13:07:19;;;;;;;6.47;5.78;;;28.50;70.90;;;;;;5086185;28;20225;-74